Time;durP1;ratioP1;P1;durP2;ratioP2;P2;SDS_P1;SDS_P2;PMS_P1;PMS_P2;Temp;Humidity;BMP_temperature;BMP_pressure;BME280_temperature;BME280_humidity;BME280_pressure;Samples;Min_cycle;Max_cycle;Signal;HPM_P1;HPM_P2
2021/03/12 00:02:21;;;;;;;2.17;1.20;;;6.00;99.90;;;;;;4993501;28;20202;-68
2021/03/12 00:04:47;;;;;;;2.43;1.10;;;6.00;99.90;;;;;;4993266;28;20192;-67
2021/03/12 00:07:12;;;;;;;2.50;1.10;;;6.00;99.90;;;;;;4993197;28;20262;-67
2021/03/12 00:09:38;;;;;;;1.97;1.10;;;6.00;99.90;;;;;;4993612;28;20307;-67
2021/03/12 00:12:04;;;;;;;1.33;1.00;;;6.10;99.90;;;;;;4992701;28;20253;-67
2021/03/12 00:14:29;;;;;;;2.00;1.27;;;6.10;99.90;;;;;;4993124;28;20179;-67
2021/03/12 00:16:55;;;;;;;4.33;1.27;;;6.20;99.90;;;;;;4993042;28;20575;-67
2021/03/12 00:19:21;;;;;;;3.60;1.13;;;6.30;99.90;;;;;;4992976;28;20226;-67
2021/03/12 00:21:46;;;;;;;2.10;1.03;;;6.30;99.90;;;;;;4993003;28;20187;-67
2021/03/12 00:24:12;;;;;;;1.87;1.17;;;6.40;99.90;;;;;;4992649;28;20183;-68
2021/03/12 00:26:38;;;;;;;2.87;0.80;;;6.40;99.90;;;;;;4992636;28;20176;-67
2021/03/12 00:29:04;;;;;;;5.30;1.13;;;6.40;99.90;;;;;;4993212;28;20555;-67
2021/03/12 00:31:29;;;;;;;3.53;1.37;;;6.50;99.90;;;;;;4992678;28;20696;-68
2021/03/12 00:33:55;;;;;;;2.40;1.07;;;6.50;99.90;;;;;;4992697;28;20498;-67
2021/03/12 00:36:20;;;;;;;1.47;1.10;;;6.50;99.90;;;;;;4991604;28;20222;-68
2021/03/12 00:38:46;;;;;;;1.73;1.20;;;6.50;99.90;;;;;;4993020;28;20207;-67
2021/03/12 00:41:12;;;;;;;3.17;1.00;;;6.60;99.90;;;;;;4992665;28;20585;-68
2021/03/12 00:43:38;;;;;;;1.60;0.93;;;6.60;99.90;;;;;;4992272;28;20241;-67
2021/03/12 00:46:06;;;;;;;5.33;1.43;;;6.60;99.90;;;;;;4992828;28;20179;-67
2021/03/12 00:48:32;;;;;;;2.10;1.27;;;6.60;99.90;;;;;;4993018;28;20426;-67
2021/03/12 00:50:58;;;;;;;3.00;1.00;;;6.60;99.90;;;;;;4992647;28;20841;-67
2021/03/12 00:53:23;;;;;;;4.63;1.20;;;6.70;99.90;;;;;;4992102;28;20199;-67
2021/03/12 00:55:50;;;;;;;2.40;1.20;;;6.70;99.90;;;;;;4992710;28;20959;-67
2021/03/12 00:58:17;;;;;;;1.30;1.20;;;6.70;99.90;;;;;;4992396;28;20697;-67
2021/03/12 01:00:43;;;;;;;2.63;1.23;;;6.70;99.90;;;;;;4992266;28;20474;-67
2021/03/12 01:03:11;;;;;;;1.70;1.07;;;6.70;99.90;;;;;;4992677;28;20474;-67
2021/03/12 01:05:37;;;;;;;2.00;1.20;;;6.80;99.90;;;;;;4992243;28;20799;-67
2021/03/12 01:08:02;;;;;;;4.87;1.90;;;6.80;99.90;;;;;;4992675;28;20433;-67
2021/03/12 01:10:28;;;;;;;2.57;0.93;;;6.80;99.90;;;;;;4992200;28;20454;-67
2021/03/12 01:12:54;;;;;;;3.60;1.13;;;6.80;99.90;;;;;;4992291;28;20183;-67
2021/03/12 01:15:22;;;;;;;3.43;1.63;;;6.80;99.90;;;;;;4992063;28;20326;-67
2021/03/12 01:17:48;;;;;;;3.47;1.10;;;6.80;99.90;;;;;;4992377;28;20775;-67
2021/03/12 01:20:35;;;;;;;3.90;1.00;;;6.80;99.90;;;;;;4991704;28;20462;-67
2021/03/12 01:23:02;;;;;;;4.67;1.73;;;6.70;99.90;;;;;;4992006;28;20182;-67
2021/03/12 01:25:34;;;;;;;1.90;1.43;;;6.70;99.90;;;;;;4991512;28;20439;-67
2021/03/12 01:28:00;;;;;;;1.67;0.83;;;6.70;99.90;;;;;;4992099;28;20790;-67
2021/03/12 01:30:37;;;;;;;2.20;1.00;;;6.80;99.90;;;;;;4991870;28;20604;-67
2021/03/12 01:33:04;;;;;;;4.23;0.80;;;6.80;99.90;;;;;;4991495;28;20542;-67
2021/03/12 01:35:30;;;;;;;3.40;1.00;;;6.80;99.90;;;;;;4991685;28;20470;-67
2021/03/12 01:37:55;;;;;;;4.80;1.33;;;6.80;99.90;;;;;;4991725;28;20454;-67
2021/03/12 01:40:23;;;;;;;5.13;1.30;;;6.80;99.90;;;;;;4991648;28;20358;-67
2021/03/12 01:42:51;;;;;;;2.10;1.03;;;6.80;99.90;;;;;;4991543;28;20842;-67
2021/03/12 01:45:25;;;;;;;4.63;1.20;;;6.90;99.90;;;;;;4991410;28;20951;-67
2021/03/12 01:47:51;;;;;;;2.17;0.80;;;6.80;99.90;;;;;;4991239;28;20434;-67
2021/03/12 01:50:18;;;;;;;4.30;2.57;;;6.60;99.90;;;;;;4991311;28;20451;-67
2021/03/12 01:52:44;;;;;;;3.30;1.13;;;6.30;99.90;;;;;;4991374;28;20199;-67
2021/03/12 01:55:17;;;;;;;2.00;0.90;;;6.10;99.90;;;;;;4990856;28;20443;-67
2021/03/12 01:57:43;;;;;;;3.73;1.13;;;6.00;99.90;;;;;;4991721;28;20490;-67
2021/03/12 02:00:09;;;;;;;5.90;1.47;;;5.90;99.90;;;;;;4991229;28;20470;-67
2021/03/12 02:02:35;;;;;;;3.73;1.10;;;5.90;99.90;;;;;;4991410;28;20932;-67
2021/03/12 02:05:01;;;;;;;1.23;0.97;;;5.90;99.90;;;;;;4990919;28;20439;-67
2021/03/12 02:07:26;;;;;;;3.20;0.90;;;5.80;99.90;;;;;;4991090;28;20242;-67
2021/03/12 02:09:52;;;;;;;2.03;1.20;;;5.80;99.90;;;;;;4991199;28;20187;-67
2021/03/12 02:12:17;;;;;;;1.73;1.20;;;5.80;99.90;;;;;;4990832;28;20188;-67
2021/03/12 02:14:59;;;;;;;2.53;0.90;;;5.90;99.90;;;;;;4990977;28;20716;-67
2021/03/12 02:17:32;;;;;;;2.90;1.30;;;5.90;99.90;;;;;;4991338;28;20799;-67
2021/03/12 02:20:06;;;;;;;1.70;1.17;;;5.90;99.90;;;;;;4986395;28;20488;-67
2021/03/12 02:22:34;;;;;;;2.43;1.10;;;5.90;99.90;;;;;;4991081;28;20458;-67
2021/03/12 02:25:05;;;;;;;1.63;1.10;;;5.80;99.90;;;;;;4990235;28;20427;-67
2021/03/12 02:27:33;;;;;;;2.77;0.73;;;5.80;99.90;;;;;;4991225;28;20466;-67
2021/03/12 02:30:01;;;;;;;3.23;1.27;;;5.80;99.90;;;;;;4990119;28;20990;-67
2021/03/12 02:32:31;;;;;;;2.27;1.07;;;5.80;99.90;;;;;;4990822;28;20854;-67
2021/03/12 02:35:02;;;;;;;1.60;1.03;;;5.80;99.90;;;;;;4990409;28;20875;-67
2021/03/12 02:37:28;;;;;;;2.13;0.90;;;5.80;99.90;;;;;;4990310;28;20524;-67
2021/03/12 02:39:57;;;;;;;4.33;1.27;;;5.90;99.90;;;;;;4990713;28;20477;-67
2021/03/12 02:42:23;;;;;;;3.17;1.03;;;5.90;99.90;;;;;;4990601;28;20446;-67
2021/03/12 02:44:50;;;;;;;5.90;1.40;;;5.90;99.90;;;;;;4990651;28;20426;-67
2021/03/12 02:47:30;;;;;;;1.40;0.90;;;5.90;99.90;;;;;;4990637;28;20191;-67
2021/03/12 02:49:57;;;;;;;2.33;0.97;;;5.90;99.90;;;;;;4990918;28;20449;-67
2021/03/12 02:52:23;;;;;;;2.97;1.30;;;5.90;99.90;;;;;;4990626;28;20488;-67
2021/03/12 02:54:50;;;;;;;3.90;1.20;;;5.80;99.90;;;;;;4989819;28;20434;-67
2021/03/12 02:57:19;;;;;;;1.80;0.90;;;5.80;99.90;;;;;;4990112;28;20439;-67
2021/03/12 02:59:46;;;;;;;2.70;1.27;;;5.80;99.90;;;;;;4991898;28;20512;-67
2021/03/12 03:02:12;;;;;;;1.37;0.90;;;5.80;99.90;;;;;;4994809;28;20464;-67
2021/03/12 03:04:40;;;;;;;1.50;1.20;;;5.80;99.90;;;;;;4994220;28;20948;-67
2021/03/12 03:07:10;;;;;;;3.97;1.33;;;5.80;99.90;;;;;;4994720;28;20446;-67
2021/03/12 03:09:38;;;;;;;3.43;1.40;;;5.80;99.90;;;;;;4994441;28;20828;-67
2021/03/12 03:12:05;;;;;;;3.70;1.47;;;5.80;99.90;;;;;;4994395;28;20461;-67
2021/03/12 03:14:32;;;;;;;2.80;1.30;;;5.80;99.90;;;;;;4994219;28;20449;-67
2021/03/12 03:17:00;;;;;;;3.60;2.07;;;5.80;99.90;;;;;;4994546;28;21029;-67
2021/03/12 03:19:30;;;;;;;4.90;1.03;;;5.80;99.90;;;;;;4994121;28;20961;-67
2021/03/12 03:21:57;;;;;;;4.50;1.73;;;5.80;99.90;;;;;;4994087;28;20454;-67
2021/03/12 03:24:23;;;;;;;2.40;1.70;;;5.90;99.90;;;;;;4993633;28;20441;-67
2021/03/12 03:26:49;;;;;;;2.00;1.07;;;5.90;99.90;;;;;;4994088;28;20438;-67
2021/03/12 03:29:14;;;;;;;2.77;1.10;;;5.90;99.90;;;;;;4994161;28;20488;-67
2021/03/12 03:31:40;;;;;;;2.53;1.67;;;5.90;99.90;;;;;;4994600;28;20215;-67
2021/03/12 03:34:06;;;;;;;1.57;1.27;;;5.90;99.90;;;;;;4993475;28;20250;-67
2021/03/12 03:36:31;;;;;;;1.63;1.00;;;5.80;99.90;;;;;;4994314;28;20242;-67
2021/03/12 03:38:57;;;;;;;3.43;1.27;;;5.80;99.90;;;;;;4993501;28;20222;-67
2021/03/12 03:41:23;;;;;;;2.30;0.97;;;5.80;99.90;;;;;;4994148;28;20654;-67
2021/03/12 03:43:51;;;;;;;2.60;0.93;;;5.80;99.90;;;;;;4993375;28;20218;-67
2021/03/12 03:46:17;;;;;;;2.20;1.30;;;5.70;99.90;;;;;;4994116;28;20786;-67
2021/03/12 03:48:43;;;;;;;2.80;0.87;;;5.70;99.90;;;;;;4993787;28;20446;-67
2021/03/12 03:51:12;;;;;;;1.40;1.13;;;5.70;99.90;;;;;;4993381;28;20458;-67
2021/03/12 03:53:40;;;;;;;3.07;0.90;;;5.70;99.90;;;;;;4993367;28;20527;-67
2021/03/12 03:56:07;;;;;;;5.53;1.30;;;5.70;99.90;;;;;;4993780;28;20512;-67
2021/03/12 03:58:36;;;;;;;1.40;0.87;;;5.70;99.90;;;;;;5008770;28;20438;-67
2021/03/12 04:01:02;;;;;;;2.87;0.77;;;5.70;99.90;;;;;;4993688;28;20589;-67
2021/03/12 04:03:28;;;;;;;4.63;1.30;;;5.70;99.90;;;;;;4993430;28;20593;-67
2021/03/12 04:05:55;;;;;;;2.83;0.80;;;5.70;99.90;;;;;;4993540;28;20498;-67
2021/03/12 04:08:22;;;;;;;5.17;1.00;;;5.70;99.90;;;;;;4993713;28;20435;-67
2021/03/12 04:10:49;;;;;;;2.17;1.10;;;5.80;99.90;;;;;;4993334;28;20493;-66
2021/03/12 04:13:15;;;;;;;1.83;1.00;;;5.80;99.90;;;;;;4993232;28;20845;-67
2021/03/12 04:15:41;;;;;;;3.87;1.13;;;5.80;99.90;;;;;;4993129;28;20462;-67
2021/03/12 04:18:07;;;;;;;1.80;1.00;;;5.80;99.90;;;;;;4992920;28;20466;-67
2021/03/12 04:20:33;;;;;;;1.93;0.90;;;5.90;99.90;;;;;;4993364;28;20580;-67
2021/03/12 04:22:59;;;;;;;1.70;0.93;;;5.90;99.90;;;;;;4992556;28;20570;-67
2021/03/12 04:25:25;;;;;;;3.63;1.13;;;6.00;99.90;;;;;;4992825;28;20462;-67
2021/03/12 04:27:51;;;;;;;2.40;0.90;;;6.00;99.90;;;;;;4993128;28;20936;-67
2021/03/12 04:30:17;;;;;;;3.90;1.50;;;6.00;99.90;;;;;;4992870;28;20215;-67
2021/03/12 04:32:43;;;;;;;10.17;1.30;;;6.00;99.90;;;;;;4992552;28;20241;-67
2021/03/12 04:35:09;;;;;;;2.77;1.30;;;6.00;99.90;;;;;;4992855;28;20446;-67
2021/03/12 04:37:35;;;;;;;2.97;0.97;;;6.00;99.90;;;;;;4993183;28;20478;-67
2021/03/12 04:40:03;;;;;;;2.87;1.27;;;6.10;99.90;;;;;;4992963;28;20972;-67
2021/03/12 04:42:29;;;;;;;10.40;1.90;;;6.00;99.90;;;;;;4992968;28;20517;-68
2021/03/12 04:44:56;;;;;;;3.43;1.07;;;6.10;99.90;;;;;;4992439;28;21173;-67
2021/03/12 04:47:23;;;;;;;3.10;1.20;;;6.00;99.90;;;;;;4992966;28;20529;-67
2021/03/12 04:49:49;;;;;;;2.20;1.10;;;6.00;99.90;;;;;;4992644;28;20525;-67
2021/03/12 04:52:14;;;;;;;1.33;1.13;;;6.10;99.90;;;;;;4992981;28;20613;-67
2021/03/12 04:54:41;;;;;;;4.80;1.07;;;6.10;99.90;;;;;;4992455;28;20426;-67
2021/03/12 04:57:06;;;;;;;3.63;1.50;;;6.00;99.90;;;;;;4992876;28;20266;-67
2021/03/12 04:59:33;;;;;;;7.40;1.53;;;6.00;99.90;;;;;;4992752;28;20536;-66
2021/03/12 05:01:59;;;;;;;2.03;1.03;;;6.00;99.90;;;;;;4992319;28;20689;-65
2021/03/12 05:04:25;;;;;;;2.40;1.00;;;5.90;99.90;;;;;;4992084;28;20434;-65
2021/03/12 05:06:52;;;;;;;1.93;1.13;;;5.90;99.90;;;;;;4992615;28;20426;-67
2021/03/12 05:09:17;;;;;;;2.47;1.43;;;5.80;99.90;;;;;;4992609;28;20802;-67
2021/03/12 05:11:44;;;;;;;2.40;1.50;;;5.80;99.90;;;;;;4992275;28;20449;-65
2021/03/12 05:14:13;;;;;;;4.83;2.27;;;5.70;99.90;;;;;;4991840;28;20187;-67
2021/03/12 05:16:40;;;;;;;5.07;1.60;;;5.70;99.90;;;;;;4992491;28;20809;-65
2021/03/12 05:19:05;;;;;;;5.07;1.40;;;5.70;99.90;;;;;;4992155;28;20470;-67
2021/03/12 05:21:32;;;;;;;5.50;1.13;;;5.70;99.90;;;;;;4992060;28;20796;-67
2021/03/12 05:23:58;;;;;;;6.43;1.03;;;5.70;99.90;;;;;;4991401;28;20183;-67
2021/03/12 05:26:24;;;;;;;6.20;1.20;;;5.70;99.90;;;;;;4991954;28;20439;-67
2021/03/12 05:28:53;;;;;;;4.80;1.40;;;5.60;99.90;;;;;;4991946;28;20434;-67
2021/03/12 05:31:20;;;;;;;3.43;1.20;;;5.60;99.90;;;;;;4991565;28;20649;-67
2021/03/12 05:33:46;;;;;;;3.93;1.40;;;5.60;99.90;;;;;;4991730;28;20525;-67
2021/03/12 05:36:12;;;;;;;5.10;2.63;;;5.60;99.90;;;;;;4992812;28;21027;-67
2021/03/12 05:38:37;;;;;;;5.00;2.43;;;5.60;99.90;;;;;;4992442;28;20211;-67
2021/03/12 05:41:04;;;;;;;4.03;1.83;;;5.60;99.90;;;;;;4992497;28;20233;-67
2021/03/12 05:43:29;;;;;;;2.23;0.90;;;5.60;99.90;;;;;;4991256;28;20188;-67
2021/03/12 05:45:59;;;;;;;6.33;1.67;;;5.60;99.90;;;;;;4993640;28;20442;-66
2021/03/12 05:48:24;;;;;;;2.90;1.20;;;5.60;99.90;;;;;;4991302;28;20179;-66
2021/03/12 05:50:50;;;;;;;2.50;1.40;;;5.60;99.90;;;;;;4991399;28;20987;-66
2021/03/12 05:53:18;;;;;;;5.20;1.73;;;5.60;99.90;;;;;;4991268;28;20629;-65
2021/03/12 05:55:44;;;;;;;2.17;1.10;;;5.70;99.90;;;;;;4991536;28;20438;-66
2021/03/12 05:58:10;;;;;;;4.10;1.77;;;5.80;99.90;;;;;;4991365;28;20936;-66
2021/03/12 06:00:35;;;;;;;3.60;1.30;;;5.90;99.90;;;;;;4991528;28;20509;-65
2021/03/12 06:03:02;;;;;;;3.03;1.23;;;5.90;99.90;;;;;;4991685;28;20466;-65
2021/03/12 06:05:27;;;;;;;3.10;1.30;;;5.90;99.90;;;;;;4991201;28;20214;-66
2021/03/12 06:07:53;;;;;;;4.07;1.57;;;5.90;99.90;;;;;;4990092;28;20435;-65
2021/03/12 06:10:18;;;;;;;4.80;1.50;;;5.90;99.90;;;;;;4991374;28;20199;-65
2021/03/12 06:12:47;;;;;;;7.17;2.83;;;5.80;99.90;;;;;;4990980;28;20176;-66
2021/03/12 06:15:13;;;;;;;1.90;1.30;;;5.90;99.90;;;;;;4988301;28;20192;-65
2021/03/12 06:17:47;;;;;;;3.33;0.83;;;6.00;99.90;;;;;;4990566;28;20466;-66
2021/03/12 06:20:15;;;;;;;3.53;1.37;;;6.10;99.90;;;;;;4991021;28;20775;-65
2021/03/12 06:22:52;;;;;;;2.87;1.43;;;6.20;99.90;;;;;;5005477;28;20434;-65
2021/03/12 06:25:30;;;;;;;2.77;1.40;;;6.30;99.90;;;;;;4990247;28;20454;-65
2021/03/12 06:28:15;;;;;;;3.87;1.10;;;6.30;99.90;;;;;;4990944;28;20481;-65
2021/03/12 06:30:40;;;;;;;2.67;1.30;;;6.30;99.90;;;;;;4991005;28;20453;-65
2021/03/12 06:33:06;;;;;;;10.20;1.67;;;6.40;99.90;;;;;;4990815;28;20525;-66
2021/03/12 06:35:38;;;;;;;2.83;1.20;;;6.40;99.90;;;;;;4990492;28;20180;-65
2021/03/12 06:38:08;;;;;;;3.23;1.27;;;6.30;99.90;;;;;;4990933;28;20180;-65
2021/03/12 06:40:37;;;;;;;1.23;0.87;;;6.50;99.90;;;;;;4990934;28;20553;-65
2021/03/12 06:43:09;;;;;;;1.60;1.17;;;6.60;99.90;;;;;;4990946;28;20461;-65
2021/03/12 06:45:56;;;;;;;3.03;1.43;;;6.70;99.90;;;;;;4990346;28;20423;-66
2021/03/12 06:48:32;;;;;;;3.10;1.10;;;6.70;99.90;;;;;;4990943;28;20433;-65
2021/03/12 06:51:05;;;;;;;4.00;1.43;;;6.70;99.90;;;;;;4990040;28;20811;-65
2021/03/12 06:53:34;;;;;;;2.20;1.10;;;6.70;99.90;;;;;;4990913;28;20422;-65
2021/03/12 06:56:05;;;;;;;1.53;1.43;;;6.60;99.90;;;;;;4989832;28;20429;-65
2021/03/12 06:58:31;;;;;;;4.97;1.60;;;6.60;99.90;;;;;;4991119;28;20441;-65
2021/03/12 07:00:58;;;;;;;3.67;1.10;;;6.40;99.90;;;;;;4990984;28;20439;-65
2021/03/12 07:03:28;;;;;;;3.30;1.57;;;6.20;99.90;;;;;;4990862;28;20772;-65
2021/03/12 07:06:03;;;;;;;2.87;0.90;;;5.90;99.90;;;;;;4991147;28;20453;-65
2021/03/12 07:08:40;;;;;;;5.93;1.23;;;5.90;99.90;;;;;;4991332;28;20427;-65
2021/03/12 07:11:25;;;;;;;2.03;1.07;;;6.20;99.90;;;;;;4991058;28;20441;-65
2021/03/12 07:13:56;;;;;;;4.37;1.30;;;6.70;99.90;;;;;;4990571;28;20430;-65
2021/03/12 07:16:25;;;;;;;1.27;1.03;;;6.90;99.90;;;;;;4989689;28;20415;-65
2021/03/12 07:18:54;;;;;;;4.30;1.10;;;7.20;99.90;;;;;;4990879;28;20447;-65
2021/03/12 07:21:26;;;;;;;3.30;1.27;;;7.50;99.90;;;;;;4990830;28;21019;-65
2021/03/12 07:23:59;;;;;;;1.50;1.40;;;7.60;99.90;;;;;;4990508;28;20418;-65
2021/03/12 07:26:33;;;;;;;2.53;1.00;;;7.40;99.90;;;;;;4990850;28;20461;-65
2021/03/12 07:29:00;;;;;;;3.07;0.87;;;7.60;99.90;;;;;;4990843;28;20410;-65
2021/03/12 07:31:35;;;;;;;11.00;1.60;;;7.60;99.90;;;;;;4990873;28;20503;-65
2021/03/12 07:34:26;;;;;;;2.33;0.97;;;7.50;99.90;;;;;;4990536;28;20477;-65
2021/03/12 07:36:55;;;;;;;3.40;1.20;;;7.60;99.90;;;;;;4990681;28;20913;-65
2021/03/12 07:39:42;;;;;;;4.47;1.10;;;7.70;99.90;;;;;;4990689;28;20465;-65
2021/03/12 07:42:09;;;;;;;1.87;1.17;;;8.00;99.90;;;;;;4990637;28;20435;-65
2021/03/12 07:44:38;;;;;;;3.40;1.60;;;8.10;99.90;;;;;;4990446;28;20912;-65
2021/03/12 07:47:04;;;;;;;2.77;1.37;;;7.80;99.90;;;;;;4994046;28;20407;-65
2021/03/12 07:49:32;;;;;;;4.20;0.97;;;7.60;99.90;;;;;;4994221;28;20418;-65
2021/03/12 07:51:59;;;;;;;1.23;0.83;;;7.90;99.90;;;;;;4994086;28;20465;-65
2021/03/12 07:54:41;;;;;;;3.13;1.07;;;8.30;99.90;;;;;;4993790;28;20505;-65
2021/03/12 07:57:32;;;;;;;2.50;0.90;;;8.70;99.90;;;;;;4994284;28;20505;-65
2021/03/12 07:59:59;;;;;;;2.00;1.07;;;8.90;99.90;;;;;;4995999;28;20466;-65
2021/03/12 08:02:58;;;;;;;2.70;1.37;;;9.30;99.90;;;;;;4994427;28;20851;-65
2021/03/12 08:05:40;;;;;;;1.23;0.93;;;9.50;99.90;;;;;;4993887;28;20935;-65
2021/03/12 08:08:35;;;;;;;5.17;1.93;;;9.80;99.90;;;;;;4994357;28;20457;-65
2021/03/12 08:11:24;;;;;;;2.80;1.17;;;9.90;99.90;;;;;;4993991;28;20814;-65
2021/03/12 08:13:51;;;;;;;2.60;1.17;;;10.00;99.90;;;;;;4993524;28;20976;-65
2021/03/12 08:16:17;;;;;;;2.13;1.57;;;9.60;99.90;;;;;;4993900;28;20425;-65
2021/03/12 08:18:43;;;;;;;2.23;0.97;;;9.60;99.90;;;;;;4993464;28;20464;-65
2021/03/12 08:21:44;;;;;;;2.07;1.20;;;9.80;99.90;;;;;;4993617;28;20954;-65
2021/03/12 08:24:43;;;;;;;3.37;1.20;;;10.10;99.90;;;;;;4952184;28;20651;-65
2021/03/12 08:27:09;;;;;;;3.60;1.20;;;10.20;99.90;;;;;;4991625;28;20430;-66
2021/03/12 08:29:42;;;;;;;5.37;1.50;;;10.40;99.90;;;;;;4992391;28;20450;-66
2021/03/12 08:32:43;;;;;;;5.37;1.80;;;10.60;99.90;;;;;;4991234;28;20211;-66
2021/03/12 08:35:38;;;;;;;1.57;1.33;;;11.00;99.90;;;;;;4992226;28;20520;-66
2021/03/12 08:38:22;;;;;;;1.80;1.00;;;11.20;99.90;;;;;;4992189;28;20469;-66
2021/03/12 08:41:15;;;;;;;4.47;1.43;;;11.10;99.90;;;;;;4992741;28;20557;-66
2021/03/12 08:43:49;;;;;;;2.00;1.20;;;11.10;99.90;;;;;;4987996;28;20443;-66
2021/03/12 08:46:17;;;;;;;2.83;1.03;;;11.30;99.90;;;;;;4992481;28;20469;-66
2021/03/12 08:48:44;;;;;;;3.57;1.20;;;11.50;99.90;;;;;;4992654;28;20465;-66
2021/03/12 08:51:14;;;;;;;1.23;1.13;;;11.30;99.90;;;;;;4992172;28;20458;-66
2021/03/12 08:53:45;;;;;;;1.70;1.50;;;10.70;99.90;;;;;;4991168;28;20795;-66
2021/03/12 08:56:12;;;;;;;2.70;0.93;;;10.50;99.90;;;;;;4992340;28;20452;-66
2021/03/12 08:58:38;;;;;;;4.20;1.57;;;10.50;99.90;;;;;;4991461;28;20709;-66
2021/03/12 09:01:18;;;;;;;1.50;1.03;;;11.20;99.90;;;;;;4991240;28;20553;-67
2021/03/12 09:03:48;;;;;;;2.70;1.47;;;11.80;99.90;;;;;;4990813;28;20453;-66
2021/03/12 09:06:19;;;;;;;4.30;1.33;;;12.10;99.90;;;;;;4992300;28;20426;-66
2021/03/12 09:08:46;;;;;;;2.60;1.10;;;12.70;99.10;;;;;;4991962;28;20933;-66
2021/03/12 09:11:18;;;;;;;2.00;1.23;;;12.70;97.90;;;;;;4991385;28;22125;-66
2021/03/12 09:13:44;;;;;;;3.87;1.40;;;12.00;97.10;;;;;;4991888;28;20439;-66
2021/03/12 09:16:15;;;;;;;1.80;1.20;;;11.70;98.70;;;;;;4992130;28;20458;-67
2021/03/12 09:18:41;;;;;;;6.03;1.53;;;11.40;99.30;;;;;;4991405;28;21116;-67
2021/03/12 09:21:08;;;;;;;4.77;1.27;;;11.10;99.90;;;;;;4991414;28;20457;-67
2021/03/12 09:23:38;;;;;;;2.10;1.27;;;11.00;99.90;;;;;;4991233;28;20652;-67
2021/03/12 09:26:05;;;;;;;3.80;1.30;;;10.90;99.90;;;;;;4991355;28;20434;-67
2021/03/12 09:28:31;;;;;;;5.00;1.30;;;10.70;99.90;;;;;;4991680;28;20445;-67
2021/03/12 09:30:58;;;;;;;2.23;1.20;;;10.60;99.90;;;;;;4991110;28;20553;-67
2021/03/12 09:33:38;;;;;;;3.27;1.37;;;10.60;99.90;;;;;;4991251;28;20593;-67
2021/03/12 09:36:21;;;;;;;3.13;1.40;;;10.70;99.90;;;;;;4991723;28;20430;-67
2021/03/12 09:38:46;;;;;;;5.03;1.23;;;10.80;99.90;;;;;;4990598;28;20866;-67
2021/03/12 09:41:23;;;;;;;3.17;1.13;;;10.50;99.90;;;;;;4980510;28;20470;-67
2021/03/12 09:44:09;;;;;;;4.30;1.50;;;10.40;99.90;;;;;;4990839;28;20187;-67
2021/03/12 09:46:38;;;;;;;1.70;1.10;;;10.40;99.90;;;;;;4987082;28;20434;-66
2021/03/12 09:49:08;;;;;;;7.47;1.40;;;10.30;99.90;;;;;;4991048;28;20477;-67
2021/03/12 09:51:34;;;;;;;2.20;1.30;;;10.10;99.90;;;;;;4983425;28;20461;-67
2021/03/12 09:54:00;;;;;;;3.60;1.37;;;10.00;99.90;;;;;;4990542;28;20478;-67
2021/03/12 09:56:26;;;;;;;2.53;1.10;;;10.00;99.90;;;;;;4990914;28;20936;-67
2021/03/12 09:58:52;;;;;;;3.73;1.00;;;10.20;99.90;;;;;;4990304;28;20477;-67
2021/03/12 10:01:19;;;;;;;1.40;0.90;;;10.10;99.90;;;;;;4991209;28;20461;-67
2021/03/12 10:03:46;;;;;;;3.23;1.30;;;10.10;99.90;;;;;;4990720;28;20183;-66
2021/03/12 10:06:13;;;;;;;3.90;1.37;;;9.90;99.90;;;;;;4990776;28;20427;-67
2021/03/12 10:09:01;;;;;;;2.77;1.30;;;9.70;99.90;;;;;;4990811;28;20794;-67
2021/03/12 10:11:45;;;;;;;1.93;1.00;;;9.60;99.90;;;;;;4980215;28;20461;-67
2021/03/12 10:14:32;;;;;;;1.47;1.33;;;9.50;99.90;;;;;;4989840;28;20509;-66
2021/03/12 10:17:26;;;;;;;4.40;1.50;;;9.40;99.90;;;;;;4990535;28;20500;-66
2021/03/12 10:20:02;;;;;;;1.03;0.77;;;9.50;99.90;;;;;;4989852;28;20466;-66
2021/03/12 10:22:30;;;;;;;4.13;1.50;;;9.50;99.90;;;;;;4990751;28;20978;-66
2021/03/12 10:25:01;;;;;;;1.60;1.50;;;9.70;99.90;;;;;;4989729;28;20855;-66
2021/03/12 10:27:32;;;;;;;1.50;0.80;;;10.50;99.90;;;;;;4990679;28;20430;-66
2021/03/12 10:29:58;;;;;;;3.23;1.10;;;10.80;99.90;;;;;;4991162;28;20434;-66
2021/03/12 10:32:26;;;;;;;2.70;1.30;;;11.70;99.90;;;;;;4990315;28;20445;-66
2021/03/12 10:34:55;;;;;;;2.83;1.20;;;12.20;99.90;;;;;;4989729;28;20434;-66
2021/03/12 10:37:23;;;;;;;1.80;1.30;;;12.80;99.90;;;;;;4991261;28;20439;-66
2021/03/12 10:39:51;;;;;;;2.00;1.23;;;12.80;99.90;;;;;;4990513;28;20946;-66
2021/03/12 10:42:26;;;;;;;5.43;1.73;;;12.00;99.90;;;;;;4989906;28;20434;-66
2021/03/12 10:45:01;;;;;;;1.43;1.20;;;11.70;99.90;;;;;;4989836;28;20430;-66
2021/03/12 10:47:27;;;;;;;4.20;2.70;;;11.20;99.90;;;;;;4988467;28;20465;-66
2021/03/12 10:49:53;;;;;;;3.50;1.80;;;11.30;99.90;;;;;;4990013;28;20500;-66
2021/03/12 10:52:24;;;;;;;2.67;1.20;;;12.00;99.90;;;;;;4990570;28;20445;-66
2021/03/12 10:54:50;;;;;;;5.10;1.57;;;12.10;99.90;;;;;;4989988;28;20437;-66
2021/03/12 10:57:15;;;;;;;9.20;1.40;;;12.00;99.90;;;;;;4990275;28;20422;-66
2021/03/12 10:59:57;;;;;;;2.37;1.50;;;13.10;99.90;;;;;;4990093;28;20257;-66
2021/03/12 11:02:36;;;;;;;5.00;1.87;;;14.70;99.90;;;;;;4990591;28;20552;-66
2021/03/12 11:05:05;;;;;;;2.50;1.23;;;16.20;95.30;;;;;;4989498;28;20434;-66
2021/03/12 11:07:32;;;;;;;1.33;1.23;;;16.60;90.60;;;;;;4990490;28;20442;-66
2021/03/12 11:09:57;;;;;;;1.83;1.73;;;17.60;84.80;;;;;;4990322;28;21011;-66
2021/03/12 11:12:25;;;;;;;1.90;1.40;;;18.50;77.70;;;;;;4990450;28;20517;-67
2021/03/12 11:14:50;;;;;;;1.97;1.23;;;18.30;71.00;;;;;;4989787;28;20187;-67
2021/03/12 11:17:16;;;;;;;1.27;1.17;;;19.10;65.40;;;;;;4990066;28;20529;-66
2021/03/12 11:19:42;;;;;;;2.57;1.50;;;18.40;62.50;;;;;;4990262;28;20207;-66
2021/03/12 11:22:08;;;;;;;2.07;1.33;;;18.20;61.60;;;;;;4994588;28;20202;-66
2021/03/12 11:24:33;;;;;;;1.73;1.37;;;18.10;61.90;;;;;;4996155;28;20176;-66
2021/03/12 11:26:59;;;;;;;1.43;1.30;;;18.60;59.60;;;;;;4994424;28;20437;-66
2021/03/12 11:29:27;;;;;;;4.00;1.40;;;18.10;58.20;;;;;;4995753;28;20202;-66
2021/03/12 11:31:53;;;;;;;1.80;1.40;;;18.70;59.20;;;;;;4994152;28;20342;-66
2021/03/12 11:34:18;;;;;;;2.03;1.40;;;19.20;58.20;;;;;;4993793;28;20517;-66
2021/03/12 11:36:44;;;;;;;2.90;1.40;;;18.90;57.00;;;;;;4995495;28;20567;-66
2021/03/12 11:39:11;;;;;;;2.03;1.30;;;18.30;56.70;;;;;;4993608;28;20807;-66
2021/03/12 11:41:37;;;;;;;2.70;1.50;;;18.50;56.20;;;;;;4994319;28;20236;-66
2021/03/12 11:44:03;;;;;;;1.40;1.30;;;18.20;55.80;;;;;;4993437;28;20435;-66
2021/03/12 11:46:28;;;;;;;1.77;1.50;;;19.30;56.00;;;;;;4992747;28;20999;-67
2021/03/12 11:48:54;;;;;;;1.33;1.20;;;19.90;52.90;;;;;;4992349;28;20604;-66
2021/03/12 11:51:19;;;;;;;1.40;1.10;;;18.60;53.30;;;;;;4993367;28;20616;-66
2021/03/12 11:53:45;;;;;;;2.10;1.10;;;18.20;55.00;;;;;;4993715;28;20183;-66
2021/03/12 11:56:10;;;;;;;2.70;1.90;;;18.00;54.30;;;;;;4992998;28;20187;-67
2021/03/12 11:58:36;;;;;;;2.60;1.80;;;18.00;53.50;;;;;;4992952;28;20194;-67
2021/03/12 12:01:02;;;;;;;1.43;1.10;;;19.20;53.50;;;;;;4993502;28;20650;-67
2021/03/12 12:03:27;;;;;;;3.53;1.40;;;20.00;51.40;;;;;;4992561;28;20602;-67
2021/03/12 12:05:53;;;;;;;2.80;1.53;;;19.30;50.30;;;;;;4992908;28;20172;-66
2021/03/12 12:08:18;;;;;;;2.47;1.90;;;19.20;51.80;;;;;;4993344;28;20238;-67
2021/03/12 12:10:44;;;;;;;4.10;1.47;;;20.30;50.10;;;;;;4993212;28;20681;-66
2021/03/12 12:13:09;;;;;;;2.97;1.37;;;20.90;47.90;;;;;;4993557;28;20175;-67
2021/03/12 12:15:35;;;;;;;2.30;1.20;;;20.90;46.90;;;;;;4992599;28;20182;-67
2021/03/12 12:18:03;;;;;;;1.40;1.30;;;21.10;46.10;;;;;;4992322;28;20180;-67
2021/03/12 12:20:30;;;;;;;2.23;1.50;;;21.50;45.70;;;;;;4992763;28;20600;-67
2021/03/12 12:22:56;;;;;;;2.70;1.33;;;20.90;46.60;;;;;;4992078;28;20445;-67
2021/03/12 12:25:21;;;;;;;1.63;1.43;;;20.40;46.90;;;;;;4992579;28;20430;-67
2021/03/12 12:27:47;;;;;;;2.73;1.40;;;19.30;48.30;;;;;;4992589;28;20258;-67
2021/03/12 12:30:13;;;;;;;4.17;1.73;;;19.40;48.30;;;;;;4992644;28;20373;-67
2021/03/12 12:32:39;;;;;;;1.70;1.53;;;19.50;47.50;;;;;;4993259;28;20171;-67
2021/03/12 12:35:06;;;;;;;2.60;1.37;;;20.00;48.70;;;;;;4992430;28;20438;-67
2021/03/12 12:37:31;;;;;;;3.37;1.90;;;19.40;49.50;;;;;;4992479;28;20180;-67
2021/03/12 12:39:57;;;;;;;3.93;1.53;;;19.00;51.20;;;;;;4993093;28;20556;-67
2021/03/12 12:42:22;;;;;;;1.57;1.47;;;19.30;50.50;;;;;;4992939;28;20207;-67
2021/03/12 12:44:48;;;;;;;2.57;1.67;;;18.60;50.70;;;;;;4992669;28;20176;-67
2021/03/12 12:47:14;;;;;;;2.80;1.40;;;16.90;53.30;;;;;;4993346;28;20234;-66
2021/03/12 12:49:39;;;;;;;2.43;1.57;;;16.20;54.90;;;;;;4992879;28;20704;-67
2021/03/12 12:52:05;;;;;;;1.40;0.97;;;15.50;56.10;;;;;;4992985;28;20271;-67
2021/03/12 12:54:31;;;;;;;1.60;1.40;;;14.80;55.50;;;;;;4993066;28;20180;-67
2021/03/12 12:56:57;;;;;;;1.73;1.50;;;15.20;56.00;;;;;;4992318;28;20809;-67
2021/03/12 12:59:23;;;;;;;1.63;1.50;;;15.40;55.30;;;;;;4992289;28;20462;-67
2021/03/12 13:01:48;;;;;;;1.50;1.27;;;16.40;55.10;;;;;;4998458;28;20290;-67
2021/03/12 13:04:14;;;;;;;1.30;1.10;;;17.00;52.10;;;;;;4994993;28;20186;-67